La Oroya, Peru
Current Conditions -  °F | °C
As of 9:00 PM on Monday 22 Dec 2014 (Local Time) from SPIM Reporting Station
Overcast Overcast  
Wind Chill: 68°   Ceiling: 1200
Heat Index: 68°   Visibility: 6mi
Dew Point: 64°   Wind: 13mph
Humidity: 88%   Direction: 160°SSE
Pressure: 29.88"   Gusts: NA
Location:  11.52°S, 75.94°W
Report Text: SPIM 230200Z 16011KT 9999 OVC012 20/18 Q1012 NOSIG RMK PP000
Loading
Personal Weather Stations






























Interactive Weather Map New forecast layout! Learn more

10-Day Weather Forecast

Advertisements
Track Severe Weather on mobile